sensor_id;sensor_type;location;lat;lon;timestamp;pressure;altitude;pressure_sealevel;temperature;humidity
36234;BME280;43467;50.890;5.982;2022-08-16T00:00:41;99364.56;;;21.76;60.50
36234;BME280;43467;50.890;5.982;2022-08-16T00:03:07;99357.28;;;21.76;60.49
36234;BME280;43467;50.890;5.982;2022-08-16T00:05:34;99363.53;;;21.77;60.41
36234;BME280;43467;50.890;5.982;2022-08-16T00:07:59;99365.03;;;21.71;60.57
36234;BME280;43467;50.890;5.982;2022-08-16T00:10:27;99367.41;;;21.74;60.74
36234;BME280;43467;50.890;5.982;2022-08-16T00:12:53;99368.88;;;21.69;60.89
36234;BME280;43467;50.890;5.982;2022-08-16T00:15:33;99376.13;;;21.68;61.00
36234;BME280;43467;50.890;5.982;2022-08-16T00:17:58;99378.78;;;21.60;61.07
36234;BME280;43467;50.890;5.982;2022-08-16T00:20:24;99368.69;;;21.62;60.91
36234;BME280;43467;50.890;5.982;2022-08-16T00:22:51;99374.75;;;21.64;60.40
36234;BME280;43467;50.890;5.982;2022-08-16T00:25:19;99387.97;;;21.50;61.54
36234;BME280;43467;50.890;5.982;2022-08-16T00:27:45;99387.66;;;21.53;61.44
36234;BME280;43467;50.890;5.982;2022-08-16T00:30:12;99385.75;;;21.45;61.14
36234;BME280;43467;50.890;5.982;2022-08-16T00:32:40;99385.25;;;21.42;61.79
36234;BME280;43467;50.890;5.982;2022-08-16T00:35:08;99397.00;;;21.41;62.09
36234;BME280;43467;50.890;5.982;2022-08-16T00:37:34;99397.25;;;21.47;61.52
36234;BME280;43467;50.890;5.982;2022-08-16T00:39:59;99399.75;;;21.49;61.70
36234;BME280;43467;50.890;5.982;2022-08-16T00:42:30;99403.94;;;21.43;62.20
36234;BME280;43467;50.890;5.982;2022-08-16T00:44:59;99397.16;;;21.31;62.41
36234;BME280;43467;50.890;5.982;2022-08-16T00:47:25;99396.59;;;21.27;62.60
36234;BME280;43467;50.890;5.982;2022-08-16T00:49:52;99404.59;;;21.19;62.79
36234;BME280;43467;50.890;5.982;2022-08-16T00:52:17;99396.84;;;21.16;63.21
36234;BME280;43467;50.890;5.982;2022-08-16T00:54:43;99405.69;;;21.09;63.23
36234;BME280;43467;50.890;5.982;2022-08-16T00:57:08;99399.44;;;21.08;63.24
36234;BME280;43467;50.890;5.982;2022-08-16T00:59:35;99393.22;;;21.08;63.26
36234;BME280;43467;50.890;5.982;2022-08-16T01:02:05;99398.56;;;21.17;63.31
36234;BME280;43467;50.890;5.982;2022-08-16T01:04:31;99390.63;;;21.16;62.93
36234;BME280;43467;50.890;5.982;2022-08-16T01:07:02;99398.94;;;21.22;62.74
36234;BME280;43467;50.890;5.982;2022-08-16T01:09:35;99391.75;;;21.31;62.45
36234;BME280;43467;50.890;5.982;2022-08-16T01:12:02;99397.16;;;21.31;62.39
36234;BME280;43467;50.890;5.982;2022-08-16T01:14:35;99397.66;;;21.35;62.21
36234;BME280;43467;50.890;5.982;2022-08-16T01:17:02;99398.19;;;21.38;62.35
36234;BME280;43467;50.890;5.982;2022-08-16T01:19:32;99395.13;;;21.33;62.51
36234;BME280;43467;50.890;5.982;2022-08-16T01:22:10;99407.44;;;21.36;62.77
36234;BME280;43467;50.890;5.982;2022-08-16T01:24:44;99397.88;;;21.41;62.19
36234;BME280;43467;50.890;5.982;2022-08-16T01:27:18;99395.81;;;21.35;62.25
36234;BME280;43467;50.890;5.982;2022-08-16T01:32:23;99392.84;;;21.20;63.11
36234;BME280;43467;50.890;5.982;2022-08-16T01:34:49;99398.56;;;21.17;63.00
36234;BME280;43467;50.890;5.982;2022-08-16T01:37:15;99406.16;;;21.22;63.48
36234;BME280;43467;50.890;5.982;2022-08-16T01:39:41;99400.63;;;21.06;63.96
36234;BME280;43467;50.890;5.982;2022-08-16T01:42:08;99398.25;;;21.03;63.56
36234;BME280;43467;50.890;5.982;2022-08-16T01:44:35;99398.59;;;21.08;63.50
36234;BME280;43467;50.890;5.982;2022-08-16T01:47:00;99396.69;;;21.00;64.01
36234;BME280;43467;50.890;5.982;2022-08-16T01:49:31;99394.94;;;20.91;64.50
36234;BME280;43467;50.890;5.982;2022-08-16T01:52:07;99398.41;;;20.83;64.98
36234;BME280;43467;50.890;5.982;2022-08-16T01:54:33;99396.31;;;20.95;63.99
36234;BME280;43467;50.890;5.982;2022-08-16T01:56:59;99404.72;;;20.92;64.57
36234;BME280;43467;50.890;5.982;2022-08-16T01:59:25;99403.84;;;20.92;64.62
36234;BME280;43467;50.890;5.982;2022-08-16T02:01:51;99398.19;;;20.77;65.12
36234;BME280;43467;50.890;5.982;2022-08-16T02:04:19;99390.44;;;20.74;65.34
36234;BME280;43467;50.890;5.982;2022-08-16T02:06:45;99394.53;;;20.78;65.07
36234;BME280;43467;50.890;5.982;2022-08-16T02:09:11;99396.88;;;20.81;65.26
36234;BME280;43467;50.890;5.982;2022-08-16T02:11:39;99391.38;;;20.82;64.71
36234;BME280;43467;50.890;5.982;2022-08-16T02:14:05;99397.88;;;20.80;65.34
36234;BME280;43467;50.890;5.982;2022-08-16T02:16:31;99388.13;;;20.79;65.59
36234;BME280;43467;50.890;5.982;2022-08-16T02:18:56;99388.28;;;20.77;65.63
36234;BME280;43467;50.890;5.982;2022-08-16T02:21:23;99389.28;;;20.76;65.58
36234;BME280;43467;50.890;5.982;2022-08-16T02:23:49;99386.59;;;20.76;65.66
36234;BME280;43467;50.890;5.982;2022-08-16T02:26:14;99385.41;;;20.79;65.25
36234;BME280;43467;50.890;5.982;2022-08-16T02:28:41;99382.72;;;20.79;65.50
36234;BME280;43467;50.890;5.982;2022-08-16T02:31:09;99383.59;;;20.79;65.32
36234;BME280;43467;50.890;5.982;2022-08-16T02:33:36;99386.44;;;20.78;65.68
36234;BME280;43467;50.890;5.982;2022-08-16T02:36:03;99389.34;;;20.84;65.20
36234;BME280;43467;50.890;5.982;2022-08-16T02:38:29;99387.66;;;20.83;65.44
36234;BME280;43467;50.890;5.982;2022-08-16T02:40:56;99395.38;;;20.78;65.99
36234;BME280;43467;50.890;5.982;2022-08-16T02:43:23;99392.28;;;20.73;66.27
36234;BME280;43467;50.890;5.982;2022-08-16T02:45:48;99385.13;;;20.64;66.04
36234;BME280;43467;50.890;5.982;2022-08-16T02:48:14;99384.16;;;20.65;66.36
36234;BME280;43467;50.890;5.982;2022-08-16T02:50:39;99379.63;;;20.66;66.18
36234;BME280;43467;50.890;5.982;2022-08-16T02:53:05;99380.44;;;20.66;66.62
36234;BME280;43467;50.890;5.982;2022-08-16T02:55:30;99383.81;;;20.68;66.04
36234;BME280;43467;50.890;5.982;2022-08-16T02:57:55;99388.88;;;20.71;65.93
36234;BME280;43467;50.890;5.982;2022-08-16T03:00:21;99379.63;;;20.66;66.37
36234;BME280;43467;50.890;5.982;2022-08-16T03:02:46;99379.28;;;20.69;66.19
36234;BME280;43467;50.890;5.982;2022-08-16T03:05:13;99375.38;;;20.63;66.52
36234;BME280;43467;50.890;5.982;2022-08-16T03:07:40;99375.69;;;20.60;66.63
36234;BME280;43467;50.890;5.982;2022-08-16T03:10:08;99374.97;;;20.58;66.74
36234;BME280;43467;50.890;5.982;2022-08-16T03:12:33;99371.22;;;20.51;66.59
36234;BME280;43467;50.890;5.982;2022-08-16T03:14:59;99374.81;;;20.42;67.22
36234;BME280;43467;50.890;5.982;2022-08-16T03:17:24;99376.53;;;20.43;67.12
36234;BME280;43467;50.890;5.982;2022-08-16T03:19:50;99384.38;;;20.36;67.66
36234;BME280;43467;50.890;5.982;2022-08-16T03:22:18;99383.38;;;20.37;67.50
36234;BME280;43467;50.890;5.982;2022-08-16T03:24:44;99378.75;;;20.30;68.06
36234;BME280;43467;50.890;5.982;2022-08-16T03:27:09;99378.03;;;20.28;68.12
36234;BME280;43467;50.890;5.982;2022-08-16T03:29:35;99389.53;;;20.20;68.54
36234;BME280;43467;50.890;5.982;2022-08-16T03:32:01;99382.16;;;20.22;68.05
36234;BME280;43467;50.890;5.982;2022-08-16T03:34:27;99387.41;;;20.24;68.48
36234;BME280;43467;50.890;5.982;2022-08-16T03:36:53;99390.41;;;20.21;68.21
36234;BME280;43467;50.890;5.982;2022-08-16T03:39:18;99389.84;;;20.17;68.70
36234;BME280;43467;50.890;5.982;2022-08-16T03:41:44;99388.56;;;20.21;68.06
36234;BME280;43467;50.890;5.982;2022-08-16T03:44:09;99392.91;;;20.22;68.17
36234;BME280;43467;50.890;5.982;2022-08-16T03:46:35;99399.75;;;20.17;68.47
36234;BME280;43467;50.890;5.982;2022-08-16T03:49:00;99407.41;;;20.12;68.74
36234;BME280;43467;50.890;5.982;2022-08-16T03:51:26;99402.81;;;20.04;69.35
36234;BME280;43467;50.890;5.982;2022-08-16T03:53:52;99405.38;;;19.96;69.51
36234;BME280;43467;50.890;5.982;2022-08-16T03:56:17;99399.84;;;19.98;69.35
36234;BME280;43467;50.890;5.982;2022-08-16T03:58:43;99411.44;;;19.98;69.41
36234;BME280;43467;50.890;5.982;2022-08-16T04:01:08;99403.69;;;19.95;69.56
36234;BME280;43467;50.890;5.982;2022-08-16T04:03:34;99402.69;;;19.96;69.29
36234;BME280;43467;50.890;5.982;2022-08-16T04:06:00;99408.53;;;19.91;69.51
36234;BME280;43467;50.890;5.982;2022-08-16T04:08:25;99406.69;;;19.92;69.63
36234;BME280;43467;50.890;5.982;2022-08-16T04:10:52;99418.81;;;19.96;69.67
36234;BME280;43467;50.890;5.982;2022-08-16T04:13:18;99421.25;;;19.89;69.86
36234;BME280;43467;50.890;5.982;2022-08-16T04:15:44;99417.03;;;19.87;70.04
36234;BME280;43467;50.890;5.982;2022-08-16T04:18:09;99423.94;;;19.89;69.60
36234;BME280;43467;50.890;5.982;2022-08-16T04:20:35;99422.53;;;19.85;70.11
36234;BME280;43467;50.890;5.982;2022-08-16T04:23:01;99422.63;;;19.93;69.49
36234;BME280;43467;50.890;5.982;2022-08-16T04:25:27;99418.81;;;19.96;69.62
36234;BME280;43467;50.890;5.982;2022-08-16T04:27:53;99418.97;;;19.94;69.55
36234;BME280;43467;50.890;5.982;2022-08-16T04:30:19;99423.47;;;19.94;69.34
36234;BME280;43467;50.890;5.982;2022-08-16T04:32:46;99416.13;;;19.96;69.35
36234;BME280;43467;50.890;5.982;2022-08-16T04:35:14;99421.66;;;19.94;69.48
36234;BME280;43467;50.890;5.982;2022-08-16T04:37:42;99419.91;;;20.03;69.25
36234;BME280;43467;50.890;5.982;2022-08-16T04:40:07;99425.16;;;20.05;69.08
36234;BME280;43467;50.890;5.982;2022-08-16T04:42:35;99421.44;;;20.06;69.19
36234;BME280;43467;50.890;5.982;2022-08-16T04:45:04;99419.78;;;20.05;68.81
36234;BME280;43467;50.890;5.982;2022-08-16T04:47:31;99423.00;;;20.08;68.58
36234;BME280;43467;50.890;5.982;2022-08-16T04:49:57;99418.16;;;20.12;68.68
36234;BME280;43467;50.890;5.982;2022-08-16T04:52:22;99417.88;;;20.15;68.18
36234;BME280;43467;50.890;5.982;2022-08-16T04:54:48;99417.88;;;20.15;68.48
36234;BME280;43467;50.890;5.982;2022-08-16T04:57:14;99437.66;;;20.14;68.47
36234;BME280;43467;50.890;5.982;2022-08-16T04:59:40;99424.53;;;20.11;68.87
36234;BME280;43467;50.890;5.982;2022-08-16T05:02:05;99431.84;;;20.18;68.44
36234;BME280;43467;50.890;5.982;2022-08-16T05:04:31;99435.06;;;20.22;68.51
36234;BME280;43467;50.890;5.982;2022-08-16T05:06:57;99437.06;;;20.20;68.67
36234;BME280;43467;50.890;5.982;2022-08-16T05:09:22;99442.59;;;20.18;68.63
36234;BME280;43467;50.890;5.982;2022-08-16T05:11:47;99449.91;;;20.26;68.62
36234;BME280;43467;50.890;5.982;2022-08-16T05:14:13;99447.50;;;20.32;68.23
36234;BME280;43467;50.890;5.982;2022-08-16T05:16:38;99444.50;;;20.35;68.09
36234;BME280;43467;50.890;5.982;2022-08-16T05:19:04;99451.91;;;20.33;68.30
36234;BME280;43467;50.890;5.982;2022-08-16T05:21:31;99455.97;;;20.37;67.89
36234;BME280;43467;50.890;5.982;2022-08-16T05:23:58;99456.78;;;20.38;68.17
36234;BME280;43467;50.890;5.982;2022-08-16T05:26:25;99461.97;;;20.49;68.26
36234;BME280;43467;50.890;5.982;2022-08-16T05:28:51;99459.03;;;20.42;67.95
36234;BME280;43467;50.890;5.982;2022-08-16T05:31:17;99457.28;;;20.51;67.63
36234;BME280;43467;50.890;5.982;2022-08-16T05:33:43;99455.88;;;20.47;68.09
36234;BME280;43467;50.890;5.982;2022-08-16T05:36:09;99455.88;;;20.47;68.14
36234;BME280;43467;50.890;5.982;2022-08-16T05:38:35;99454.69;;;20.59;67.59
36234;BME280;43467;50.890;5.982;2022-08-16T05:41:01;99459.75;;;20.62;67.61
36234;BME280;43467;50.890;5.982;2022-08-16T05:43:28;99461.97;;;20.67;67.23
36234;BME280;43467;50.890;5.982;2022-08-16T05:45:54;99468.22;;;20.67;67.36
36234;BME280;43467;50.890;5.982;2022-08-16T05:48:20;99463.47;;;20.61;68.11
36234;BME280;43467;50.890;5.982;2022-08-16T05:50:46;99474.50;;;20.58;68.32
36234;BME280;43467;50.890;5.982;2022-08-16T05:53:11;99473.50;;;20.59;68.20
36234;BME280;43467;50.890;5.982;2022-08-16T05:55:37;99467.66;;;20.64;67.97
36234;BME280;43467;50.890;5.982;2022-08-16T05:58:03;99468.75;;;20.71;67.82
36234;BME280;43467;50.890;5.982;2022-08-16T06:00:28;99468.59;;;20.72;67.78
36234;BME280;43467;50.890;5.982;2022-08-16T06:02:54;99468.00;;;20.78;67.83
36234;BME280;43467;50.890;5.982;2022-08-16T06:05:19;99461.69;;;20.87;67.16
36234;BME280;43467;50.890;5.982;2022-08-16T06:07:44;99473.91;;;21.00;66.99
36234;BME280;43467;50.890;5.982;2022-08-16T06:10:10;99467.59;;;21.09;66.72
36234;BME280;43467;50.890;5.982;2022-08-16T06:12:37;99463.22;;;21.08;66.71
36234;BME280;43467;50.890;5.982;2022-08-16T06:15:07;99463.66;;;21.03;66.84
36234;BME280;43467;50.890;5.982;2022-08-16T06:17:34;99464.47;;;21.13;66.49
36234;BME280;43467;50.890;5.982;2022-08-16T06:19:59;99475.66;;;21.09;66.62
36234;BME280;43467;50.890;5.982;2022-08-16T06:22:25;99474.69;;;21.10;66.63
36234;BME280;43467;50.890;5.982;2022-08-16T06:24:50;99493.09;;;21.14;66.76
36234;BME280;43467;50.890;5.982;2022-08-16T06:27:16;99494.47;;;21.18;66.94
36234;BME280;43467;50.890;5.982;2022-08-16T06:29:41;99497.38;;;21.25;66.52
36234;BME280;43467;50.890;5.982;2022-08-16T06:32:08;99502.09;;;21.23;66.53
36234;BME280;43467;50.890;5.982;2022-08-16T06:34:35;99498.38;;;21.24;66.63
36234;BME280;43467;50.890;5.982;2022-08-16T06:37:01;99500.59;;;21.28;66.38
36234;BME280;43467;50.890;5.982;2022-08-16T06:39:26;99506.69;;;21.30;67.02
36234;BME280;43467;50.890;5.982;2022-08-16T06:41:51;99506.75;;;21.39;66.48
36234;BME280;43467;50.890;5.982;2022-08-16T06:44:17;99498.22;;;21.43;66.60
36234;BME280;43467;50.890;5.982;2022-08-16T06:46:42;99493.88;;;21.50;66.24
36234;BME280;43467;50.890;5.982;2022-08-16T06:49:09;99502.03;;;21.58;65.93
36234;BME280;43467;50.890;5.982;2022-08-16T06:51:36;99507.41;;;21.58;66.28
36234;BME280;43467;50.890;5.982;2022-08-16T06:54:03;99513.53;;;21.68;66.02
36234;BME280;43467;50.890;5.982;2022-08-16T06:56:29;99506.06;;;21.80;65.31
36234;BME280;43467;50.890;5.982;2022-08-16T06:58:54;99505.03;;;21.81;65.88
36234;BME280;43467;50.890;5.982;2022-08-16T07:01:20;99507.41;;;21.84;65.16
36234;BME280;43467;50.890;5.982;2022-08-16T07:03:47;99511.31;;;21.90;65.05
36234;BME280;43467;50.890;5.982;2022-08-16T07:06:12;99504.22;;;21.89;65.35
36234;BME280;43467;50.890;5.982;2022-08-16T07:08:38;99505.16;;;21.97;64.69
36234;BME280;43467;50.890;5.982;2022-08-16T07:11:06;99512.94;;;22.00;64.79
36234;BME280;43467;50.890;5.982;2022-08-16T07:13:32;99517.84;;;22.05;64.86
36234;BME280;43467;50.890;5.982;2022-08-16T07:15:57;99523.28;;;22.13;64.76
36234;BME280;43467;50.890;5.982;2022-08-16T07:18:24;99521.13;;;22.16;64.47
36234;BME280;43467;50.890;5.982;2022-08-16T07:20:49;99503.25;;;22.15;64.58
36234;BME280;43467;50.890;5.982;2022-08-16T07:23:16;99532.13;;;22.31;63.87
36234;BME280;43467;50.890;5.982;2022-08-16T07:25:42;99526.44;;;22.42;63.43
36234;BME280;43467;50.890;5.982;2022-08-16T07:28:14;99518.84;;;22.46;62.60
36234;BME280;43467;50.890;5.982;2022-08-16T07:30:41;99526.16;;;22.53;62.58
36234;BME280;43467;50.890;5.982;2022-08-16T07:33:06;99519.91;;;22.53;62.87
36234;BME280;43467;50.890;5.982;2022-08-16T07:35:33;99517.31;;;22.69;62.20
36234;BME280;43467;50.890;5.982;2022-08-16T07:37:59;99520.19;;;22.76;62.51
36234;BME280;43467;50.890;5.982;2022-08-16T07:40:24;99519.19;;;22.85;62.06
36234;BME280;43467;50.890;5.982;2022-08-16T07:42:51;99518.03;;;22.95;61.74
36234;BME280;43467;50.890;5.982;2022-08-16T07:45:17;99522.59;;;23.03;61.38
36234;BME280;43467;50.890;5.982;2022-08-16T07:47:43;99518.88;;;23.12;61.37
36234;BME280;43467;50.890;5.982;2022-08-16T07:50:10;99516.38;;;23.19;60.95
36234;BME280;43467;50.890;5.982;2022-08-16T07:52:35;99519.25;;;23.25;60.43
36234;BME280;43467;50.890;5.982;2022-08-16T07:55:00;99526.19;;;23.44;60.32
36234;BME280;43467;50.890;5.982;2022-08-16T07:57:26;99525.03;;;23.46;60.16
36234;BME280;43467;50.890;5.982;2022-08-16T07:59:51;99526.03;;;23.53;59.68
36234;BME280;43467;50.890;5.982;2022-08-16T08:02:17;99520.78;;;23.60;59.57
36234;BME280;43467;50.890;5.982;2022-08-16T08:04:43;99522.66;;;23.68;59.52
36234;BME280;43467;50.890;5.982;2022-08-16T08:07:08;99525.34;;;23.76;59.55
36234;BME280;43467;50.890;5.982;2022-08-16T08:09:34;99527.22;;;23.75;58.90
36234;BME280;43467;50.890;5.982;2022-08-16T08:11:59;99533.09;;;23.79;58.35
36234;BME280;43467;50.890;5.982;2022-08-16T08:14:25;99531.56;;;23.84;58.51
36234;BME280;43467;50.890;5.982;2022-08-16T08:16:50;99538.13;;;23.98;58.25
36234;BME280;43467;50.890;5.982;2022-08-16T08:19:16;99536.44;;;23.97;58.21
36234;BME280;43467;50.890;5.982;2022-08-16T08:21:42;99544.03;;;24.01;57.85
36234;BME280;43467;50.890;5.982;2022-08-16T08:24:10;99546.56;;;24.11;57.80
36234;BME280;43467;50.890;5.982;2022-08-16T08:26:36;99550.63;;;24.23;57.75
36234;BME280;43467;50.890;5.982;2022-08-16T08:29:02;99548.53;;;24.33;56.97
36234;BME280;43467;50.890;5.982;2022-08-16T08:31:28;99559.03;;;24.36;57.09
36234;BME280;43467;50.890;5.982;2022-08-16T08:33:54;99561.38;;;24.39;56.47
36234;BME280;43467;50.890;5.982;2022-08-16T08:36:29;99562.88;;;24.42;56.42
36234;BME280;43467;50.890;5.982;2022-08-16T08:38:55;99567.28;;;24.43;56.72
36234;BME280;43467;50.890;5.982;2022-08-16T08:41:21;99567.06;;;24.61;56.55
36234;BME280;43467;50.890;5.982;2022-08-16T08:43:48;99567.75;;;24.54;55.76
36234;BME280;43467;50.890;5.982;2022-08-16T08:46:13;99568.06;;;24.60;55.76
36234;BME280;43467;50.890;5.982;2022-08-16T08:48:38;99561.81;;;24.59;55.48
36234;BME280;43467;50.890;5.982;2022-08-16T08:51:06;99571.59;;;24.68;54.78
36234;BME280;43467;50.890;5.982;2022-08-16T08:53:32;99563.34;;;24.62;54.76
36234;BME280;43467;50.890;5.982;2022-08-16T08:55:58;99565.84;;;24.63;54.98
36234;BME280;43467;50.890;5.982;2022-08-16T08:58:24;99564.97;;;24.71;54.34
36234;BME280;43467;50.890;5.982;2022-08-16T09:00:50;99563.56;;;24.83;54.94
36234;BME280;43467;50.890;5.982;2022-08-16T09:03:15;99556.47;;;24.82;54.12
36234;BME280;43467;50.890;5.982;2022-08-16T09:05:41;99554.78;;;24.81;54.21
36234;BME280;43467;50.890;5.982;2022-08-16T09:08:07;99554.78;;;24.81;53.66
36234;BME280;43467;50.890;5.982;2022-08-16T09:10:33;99557.84;;;24.86;53.64
36234;BME280;43467;50.890;5.982;2022-08-16T09:12:59;99560.84;;;24.91;53.88
36234;BME280;43467;50.890;5.982;2022-08-16T09:15:25;99557.44;;;24.97;53.11
36234;BME280;43467;50.890;5.982;2022-08-16T09:17:51;99557.03;;;25.08;53.83
36234;BME280;43467;50.890;5.982;2022-08-16T09:20:20;99557.13;;;25.15;53.16
36234;BME280;43467;50.890;5.982;2022-08-16T09:22:46;99561.38;;;25.17;52.50
36234;BME280;43467;50.890;5.982;2022-08-16T09:25:11;99557.44;;;25.20;52.97
36234;BME280;43467;50.890;5.982;2022-08-16T09:27:38;99558.59;;;25.25;52.96
36234;BME280;43467;50.890;5.982;2022-08-16T09:30:04;99548.34;;;25.35;52.57
36234;BME280;43467;50.890;5.982;2022-08-16T09:32:29;99550.34;;;25.41;51.95
36234;BME280;43467;50.890;5.982;2022-08-16T09:34:55;99550.28;;;25.50;51.78
36234;BME280;43467;50.890;5.982;2022-08-16T09:37:20;99547.63;;;25.41;51.24
36234;BME280;43467;50.890;5.982;2022-08-16T09:39:46;99548.28;;;25.43;51.10
36234;BME280;43467;50.890;5.982;2022-08-16T09:42:11;99543.53;;;25.45;50.70
36234;BME280;43467;50.890;5.982;2022-08-16T09:44:39;99545.19;;;25.55;50.92
36234;BME280;43467;50.890;5.982;2022-08-16T09:47:05;99554.19;;;25.55;50.33
36234;BME280;43467;50.890;5.982;2022-08-16T09:49:31;99542.88;;;25.43;49.81
36234;BME280;43467;50.890;5.982;2022-08-16T09:51:56;99543.16;;;25.49;50.06
36234;BME280;43467;50.890;5.982;2022-08-16T09:54:23;99540.41;;;25.57;50.16
36234;BME280;43467;50.890;5.982;2022-08-16T09:56:49;99545.13;;;25.63;49.05
36234;BME280;43467;50.890;5.982;2022-08-16T09:59:16;99545.22;;;25.69;49.26
36234;BME280;43467;50.890;5.982;2022-08-16T10:01:42;99550.34;;;25.64;48.67
36234;BME280;43467;50.890;5.982;2022-08-16T10:04:09;99547.41;;;25.74;49.08
36234;BME280;43467;50.890;5.982;2022-08-16T10:06:35;99546.00;;;25.78;48.82
36234;BME280;43467;50.890;5.982;2022-08-16T10:09:06;99549.31;;;25.88;48.67
36234;BME280;43467;50.890;5.982;2022-08-16T10:11:35;99549.66;;;25.85;47.88
36234;BME280;43467;50.890;5.982;2022-08-16T10:14:21;99552.06;;;25.80;45.51
36234;BME280;43467;50.890;5.982;2022-08-16T10:16:47;99545.53;;;25.89;46.24
36234;BME280;43467;50.890;5.982;2022-08-16T10:19:13;99549.94;;;25.90;46.18
36234;BME280;43467;50.890;5.982;2022-08-16T10:21:40;99555.00;;;25.93;46.38
36234;BME280;43467;50.890;5.982;2022-08-16T10:24:06;99553.34;;;26.07;47.01
36234;BME280;43467;50.890;5.982;2022-08-16T10:26:32;99547.81;;;26.00;45.30
36234;BME280;43467;50.890;5.982;2022-08-16T10:28:58;99558.31;;;26.03;45.05
36234;BME280;43467;50.890;5.982;2022-08-16T10:31:23;99549.06;;;26.12;45.51
36234;BME280;43467;50.890;5.982;2022-08-16T10:33:51;99559.00;;;26.20;44.61
36234;BME280;43467;50.890;5.982;2022-08-16T10:36:16;99561.34;;;26.23;43.83
36234;BME280;43467;50.890;5.982;2022-08-16T10:38:42;99559.38;;;26.31;44.14
36234;BME280;43467;50.890;5.982;2022-08-16T10:41:09;99562.09;;;26.46;44.28
36234;BME280;43467;50.890;5.982;2022-08-16T10:43:36;99560.97;;;26.41;43.98
36234;BME280;43467;50.890;5.982;2022-08-16T10:46:04;99565.75;;;26.53;43.13
36234;BME280;43467;50.890;5.982;2022-08-16T10:48:30;99572.75;;;26.62;42.35
36234;BME280;43467;50.890;5.982;2022-08-16T10:50:56;99568.25;;;26.69;42.45
36234;BME280;43467;50.890;5.982;2022-08-16T10:53:23;99563.94;;;26.75;42.94
36234;BME280;43467;50.890;5.982;2022-08-16T10:55:48;99561.31;;;26.81;43.30
36234;BME280;43467;50.890;5.982;2022-08-16T10:58:14;99565.53;;;26.84;42.88
36234;BME280;43467;50.890;5.982;2022-08-16T11:00:40;99561.31;;;26.96;43.64
36234;BME280;43467;50.890;5.982;2022-08-16T11:03:06;99562.22;;;27.03;42.75
36234;BME280;43467;50.890;5.982;2022-08-16T11:05:34;99571.31;;;26.96;41.75
36234;BME280;43467;50.890;5.982;2022-08-16T11:08:01;99558.84;;;27.01;42.46
36234;BME280;43467;50.890;5.982;2022-08-16T11:10:30;99568.94;;;27.07;42.34
36234;BME280;43467;50.890;5.982;2022-08-16T11:12:56;99574.00;;;27.10;40.71
36234;BME280;43467;50.890;5.982;2022-08-16T11:15:21;99571.94;;;27.12;40.26
36234;BME280;43467;50.890;5.982;2022-08-16T11:17:47;99572.09;;;27.25;40.42
36234;BME280;43467;50.890;5.982;2022-08-16T11:20:15;99573.44;;;27.36;40.25
36234;BME280;43467;50.890;5.982;2022-08-16T11:22:45;99574.25;;;27.51;40.10
36234;BME280;43467;50.890;5.982;2022-08-16T11:25:13;99571.66;;;27.64;40.42
36234;BME280;43467;50.890;5.982;2022-08-16T11:27:39;99578.06;;;27.57;39.89
36234;BME280;43467;50.890;5.982;2022-08-16T11:30:07;99572.91;;;27.62;39.95
36234;BME280;43467;50.890;5.982;2022-08-16T11:32:33;99576.31;;;27.70;38.73
36234;BME280;43467;50.890;5.982;2022-08-16T11:35:08;99572.63;;;27.78;38.54
36234;BME280;43467;50.890;5.982;2022-08-16T11:37:34;99574.31;;;27.79;39.67
36234;BME280;43467;50.890;5.982;2022-08-16T11:40:01;99584.34;;;27.79;38.68
36234;BME280;43467;50.890;5.982;2022-08-16T11:42:26;99582.47;;;27.79;38.95
36234;BME280;43467;50.890;5.982;2022-08-16T11:44:52;99579.41;;;27.67;38.51
36234;BME280;43467;50.890;5.982;2022-08-16T11:47:17;99581.69;;;27.64;38.58
36234;BME280;43467;50.890;5.982;2022-08-16T11:49:42;99581.81;;;27.56;39.80
36234;BME280;43467;50.890;5.982;2022-08-16T11:52:08;99583.56;;;27.63;40.62
36234;BME280;43467;50.890;5.982;2022-08-16T11:54:33;99586.09;;;27.65;40.27
36234;BME280;43467;50.890;5.982;2022-08-16T11:56:59;99591.34;;;27.66;41.17
36234;BME280;43467;50.890;5.982;2022-08-16T11:59:25;99580.03;;;27.63;41.30
36234;BME280;43467;50.890;5.982;2022-08-16T12:01:57;99587.78;;;27.66;41.72
36234;BME280;43467;50.890;5.982;2022-08-16T12:04:23;99594.66;;;27.62;41.35
36234;BME280;43467;50.890;5.982;2022-08-16T12:06:50;99591.34;;;27.66;41.89
36234;BME280;43467;50.890;5.982;2022-08-16T12:09:16;99594.66;;;27.62;40.99
36234;BME280;43467;50.890;5.982;2022-08-16T12:11:41;99583.44;;;27.71;40.54
36234;BME280;43467;50.890;5.982;2022-08-16T12:14:07;99588.06;;;27.71;40.68
36234;BME280;43467;50.890;5.982;2022-08-16T12:16:33;99585.81;;;27.81;40.77
36234;BME280;43467;50.890;5.982;2022-08-16T12:19:04;99583.38;;;27.86;39.35
36234;BME280;43467;50.890;5.982;2022-08-16T12:21:31;99582.13;;;27.89;39.57
36234;BME280;43467;50.890;5.982;2022-08-16T12:23:57;99589.94;;;27.98;40.15
36234;BME280;43467;50.890;5.982;2022-08-16T12:26:22;99582.56;;;27.92;39.98
36234;BME280;43467;50.890;5.982;2022-08-16T12:28:48;99589.91;;;27.92;39.90
36234;BME280;43467;50.890;5.982;2022-08-16T12:31:14;99576.22;;;27.85;39.89
36234;BME280;43467;50.890;5.982;2022-08-16T12:33:40;99583.56;;;27.85;39.19
36234;BME280;43467;50.890;5.982;2022-08-16T12:36:07;99569.03;;;27.99;39.70
36234;BME280;43467;50.890;5.982;2022-08-16T12:38:33;99574.19;;;28.15;39.58
36234;BME280;43467;50.890;5.982;2022-08-16T12:40:58;99572.19;;;28.30;39.03
36234;BME280;43467;50.890;5.982;2022-08-16T12:43:23;99567.69;;;28.44;39.22
36234;BME280;43467;50.890;5.982;2022-08-16T12:45:53;99572.06;;;28.45;38.51
36234;BME280;43467;50.890;5.982;2022-08-16T12:48:23;99569.00;;;28.54;38.31
36234;BME280;43467;50.890;5.982;2022-08-16T12:51:10;99570.88;;;28.54;38.60
36234;BME280;43467;50.890;5.982;2022-08-16T12:53:37;99571.00;;;28.39;38.65
36234;BME280;43467;50.890;5.982;2022-08-16T12:56:03;99568.06;;;28.41;38.58
36234;BME280;43467;50.890;5.982;2022-08-16T12:58:29;99566.84;;;28.43;37.56